sensor_id;sensor_type;location;lat;lon;timestamp;P1;durP1;ratioP1;P2;durP2;ratioP2
55170;SDS011;41060;47.510;8.680;2022-10-28T00:00:30;7.78;;;1.70;;
55170;SDS011;41060;47.510;8.680;2022-10-28T00:02:58;9.68;;;1.40;;
55170;SDS011;41060;47.510;8.680;2022-10-28T00:05:26;6.82;;;1.95;;
55170;SDS011;41060;47.510;8.680;2022-10-28T00:07:53;3.85;;;1.23;;
55170;SDS011;41060;47.510;8.680;2022-10-28T00:10:26;4.03;;;1.65;;
55170;SDS011;41060;47.510;8.680;2022-10-28T00:12:53;2.83;;;1.40;;
55170;SDS011;41060;47.510;8.680;2022-10-28T00:15:19;4.38;;;1.77;;
55170;SDS011;41060;47.510;8.680;2022-10-28T00:17:47;7.40;;;1.95;;
55170;SDS011;41060;47.510;8.680;2022-10-28T00:20:13;2.45;;;1.88;;
55170;SDS011;41060;47.510;8.680;2022-10-28T00:22:40;4.32;;;1.67;;
55170;SDS011;41060;47.510;8.680;2022-10-28T00:25:08;2.80;;;1.60;;
55170;SDS011;41060;47.510;8.680;2022-10-28T00:27:37;5.18;;;1.52;;
55170;SDS011;41060;47.510;8.680;2022-10-28T00:30:04;1.98;;;1.40;;
55170;SDS011;41060;47.510;8.680;2022-10-28T00:32:32;1.25;;;0.88;;
55170;SDS011;41060;47.510;8.680;2022-10-28T00:34:58;5.32;;;1.45;;
55170;SDS011;41060;47.510;8.680;2022-10-28T00:37:25;5.32;;;1.30;;
55170;SDS011;41060;47.510;8.680;2022-10-28T00:39:55;5.35;;;1.98;;
55170;SDS011;41060;47.510;8.680;2022-10-28T00:42:22;4.82;;;2.42;;
55170;SDS011;41060;47.510;8.680;2022-10-28T00:44:53;4.03;;;2.20;;
55170;SDS011;41060;47.510;8.680;2022-10-28T00:47:43;2.95;;;1.40;;
55170;SDS011;41060;47.510;8.680;2022-10-28T00:50:26;4.00;;;2.10;;
55170;SDS011;41060;47.510;8.680;2022-10-28T00:53:13;13.52;;;2.25;;
55170;SDS011;41060;47.510;8.680;2022-10-28T00:55:44;3.27;;;2.17;;
55170;SDS011;41060;47.510;8.680;2022-10-28T00:58:13;6.22;;;1.70;;
55170;SDS011;41060;47.510;8.680;2022-10-28T01:00:42;5.32;;;1.75;;
55170;SDS011;41060;47.510;8.680;2022-10-28T01:03:09;4.70;;;1.75;;
55170;SDS011;41060;47.510;8.680;2022-10-28T01:05:37;4.15;;;1.60;;
55170;SDS011;41060;47.510;8.680;2022-10-28T01:08:07;2.17;;;1.40;;
55170;SDS011;41060;47.510;8.680;2022-10-28T01:10:41;3.63;;;1.98;;
55170;SDS011;41060;47.510;8.680;2022-10-28T01:13:23;3.72;;;1.70;;
55170;SDS011;41060;47.510;8.680;2022-10-28T01:16:02;4.50;;;2.10;;
55170;SDS011;41060;47.510;8.680;2022-10-28T01:18:37;3.83;;;1.73;;
55170;SDS011;41060;47.510;8.680;2022-10-28T01:21:19;6.40;;;1.90;;
55170;SDS011;41060;47.510;8.680;2022-10-28T01:24:04;3.20;;;1.67;;
55170;SDS011;41060;47.510;8.680;2022-10-28T01:32:39;3.70;;;1.67;;
55170;SDS011;41060;47.510;8.680;2022-10-28T01:35:17;3.05;;;1.23;;
55170;SDS011;41060;47.510;8.680;2022-10-28T01:37:53;3.72;;;1.80;;
55170;SDS011;41060;47.510;8.680;2022-10-28T01:40:30;5.43;;;1.67;;
55170;SDS011;41060;47.510;8.680;2022-10-28T01:43:03;2.90;;;1.38;;
55170;SDS011;41060;47.510;8.680;2022-10-28T01:45:36;8.27;;;1.90;;
55170;SDS011;41060;47.510;8.680;2022-10-28T01:48:09;3.17;;;1.80;;
55170;SDS011;41060;47.510;8.680;2022-10-28T01:50:43;2.23;;;1.10;;
55170;SDS011;41060;47.510;8.680;2022-10-28T01:53:17;3.55;;;1.83;;
55170;SDS011;41060;47.510;8.680;2022-10-28T01:55:52;3.10;;;1.30;;
55170;SDS011;41060;47.510;8.680;2022-10-28T01:58:22;5.03;;;1.55;;
55170;SDS011;41060;47.510;8.680;2022-10-28T02:00:55;5.27;;;1.23;;
55170;SDS011;41060;47.510;8.680;2022-10-28T02:03:24;4.85;;;2.25;;
55170;SDS011;41060;47.510;8.680;2022-10-28T02:05:52;2.35;;;1.90;;
55170;SDS011;41060;47.510;8.680;2022-10-28T02:08:29;2.65;;;1.30;;
55170;SDS011;41060;47.510;8.680;2022-10-28T02:11:29;3.25;;;1.60;;
55170;SDS011;41060;47.510;8.680;2022-10-28T02:14:10;2.87;;;1.20;;
55170;SDS011;41060;47.510;8.680;2022-10-28T02:16:48;3.38;;;1.23;;
55170;SDS011;41060;47.510;8.680;2022-10-28T02:19:24;1.33;;;1.00;;
55170;SDS011;41060;47.510;8.680;2022-10-28T02:22:00;1.90;;;1.20;;
55170;SDS011;41060;47.510;8.680;2022-10-28T02:24:39;3.50;;;1.50;;
55170;SDS011;41060;47.510;8.680;2022-10-28T02:27:15;2.33;;;1.50;;
55170;SDS011;41060;47.510;8.680;2022-10-28T02:29:48;2.55;;;1.02;;
55170;SDS011;41060;47.510;8.680;2022-10-28T02:32:19;1.52;;;0.90;;
55170;SDS011;41060;47.510;8.680;2022-10-28T02:34:52;4.30;;;1.80;;
55170;SDS011;41060;47.510;8.680;2022-10-28T02:37:23;6.95;;;2.75;;
55170;SDS011;41060;47.510;8.680;2022-10-28T02:39:55;7.43;;;3.83;;
55170;SDS011;41060;47.510;8.680;2022-10-28T02:42:26;11.18;;;3.78;;
55170;SDS011;41060;47.510;8.680;2022-10-28T02:44:56;4.70;;;2.60;;
55170;SDS011;41060;47.510;8.680;2022-10-28T02:47:30;7.75;;;2.42;;
55170;SDS011;41060;47.510;8.680;2022-10-28T02:50:03;10.85;;;2.60;;
55170;SDS011;41060;47.510;8.680;2022-10-28T02:52:33;5.97;;;2.80;;
55170;SDS011;41060;47.510;8.680;2022-10-28T02:55:02;6.63;;;2.72;;
55170;SDS011;41060;47.510;8.680;2022-10-28T02:57:31;3.20;;;1.80;;
55170;SDS011;41060;47.510;8.680;2022-10-28T03:00:03;2.80;;;1.60;;
55170;SDS011;41060;47.510;8.680;2022-10-28T03:05:02;2.47;;;1.42;;
55170;SDS011;41060;47.510;8.680;2022-10-28T03:07:31;2.00;;;1.27;;
55170;SDS011;41060;47.510;8.680;2022-10-28T03:09:58;2.42;;;1.73;;
55170;SDS011;41060;47.510;8.680;2022-10-28T03:12:25;2.13;;;1.25;;
55170;SDS011;41060;47.510;8.680;2022-10-28T03:14:52;2.63;;;1.38;;
55170;SDS011;41060;47.510;8.680;2022-10-28T03:17:18;3.63;;;1.75;;
55170;SDS011;41060;47.510;8.680;2022-10-28T03:19:45;4.03;;;1.90;;
55170;SDS011;41060;47.510;8.680;2022-10-28T03:22:13;4.38;;;1.80;;
55170;SDS011;41060;47.510;8.680;2022-10-28T03:24:40;4.82;;;1.67;;
55170;SDS011;41060;47.510;8.680;2022-10-28T03:27:07;2.38;;;1.30;;
55170;SDS011;41060;47.510;8.680;2022-10-28T03:29:34;3.13;;;1.50;;
55170;SDS011;41060;47.510;8.680;2022-10-28T03:32:01;2.50;;;1.77;;
55170;SDS011;41060;47.510;8.680;2022-10-28T03:34:28;5.53;;;1.45;;
55170;SDS011;41060;47.510;8.680;2022-10-28T03:37:01;2.28;;;1.20;;
55170;SDS011;41060;47.510;8.680;2022-10-28T03:39:29;2.22;;;1.30;;
55170;SDS011;41060;47.510;8.680;2022-10-28T03:41:56;2.45;;;1.15;;
55170;SDS011;41060;47.510;8.680;2022-10-28T03:44:25;3.42;;;1.58;;
55170;SDS011;41060;47.510;8.680;2022-10-28T03:46:53;1.60;;;1.10;;
55170;SDS011;41060;47.510;8.680;2022-10-28T03:49:21;2.58;;;1.30;;
55170;SDS011;41060;47.510;8.680;2022-10-28T03:51:48;2.42;;;1.17;;
55170;SDS011;41060;47.510;8.680;2022-10-28T03:54:15;1.98;;;1.33;;
55170;SDS011;41060;47.510;8.680;2022-10-28T03:56:43;1.88;;;1.10;;
55170;SDS011;41060;47.510;8.680;2022-10-28T03:59:10;3.85;;;1.52;;
55170;SDS011;41060;47.510;8.680;2022-10-28T04:01:37;3.95;;;1.65;;
55170;SDS011;41060;47.510;8.680;2022-10-28T04:04:04;2.50;;;1.70;;
55170;SDS011;41060;47.510;8.680;2022-10-28T04:06:31;1.63;;;1.13;;
55170;SDS011;41060;47.510;8.680;2022-10-28T04:08:58;2.30;;;1.17;;
55170;SDS011;41060;47.510;8.680;2022-10-28T04:11:25;1.45;;;1.10;;
55170;SDS011;41060;47.510;8.680;2022-10-28T04:13:53;2.50;;;1.33;;
55170;SDS011;41060;47.510;8.680;2022-10-28T04:16:20;2.40;;;1.40;;
55170;SDS011;41060;47.510;8.680;2022-10-28T04:18:47;5.30;;;1.45;;
55170;SDS011;41060;47.510;8.680;2022-10-28T04:21:17;2.17;;;1.38;;
55170;SDS011;41060;47.510;8.680;2022-10-28T04:23:44;1.65;;;1.42;;
55170;SDS011;41060;47.510;8.680;2022-10-28T04:26:11;6.30;;;1.85;;
55170;SDS011;41060;47.510;8.680;2022-10-28T04:28:38;9.55;;;1.95;;
55170;SDS011;41060;47.510;8.680;2022-10-28T04:31:06;3.30;;;2.03;;
55170;SDS011;41060;47.510;8.680;2022-10-28T04:33:34;3.22;;;1.67;;
55170;SDS011;41060;47.510;8.680;2022-10-28T04:36:00;2.35;;;1.30;;
55170;SDS011;41060;47.510;8.680;2022-10-28T04:38:33;3.00;;;1.40;;
55170;SDS011;41060;47.510;8.680;2022-10-28T04:41:00;2.30;;;1.80;;
55170;SDS011;41060;47.510;8.680;2022-10-28T04:43:27;3.38;;;1.70;;
55170;SDS011;41060;47.510;8.680;2022-10-28T04:45:55;3.45;;;1.17;;
55170;SDS011;41060;47.510;8.680;2022-10-28T04:48:23;3.28;;;2.15;;
55170;SDS011;41060;47.510;8.680;2022-10-28T04:50:49;4.60;;;1.60;;
55170;SDS011;41060;47.510;8.680;2022-10-28T04:53:18;3.30;;;1.70;;
55170;SDS011;41060;47.510;8.680;2022-10-28T04:55:44;4.20;;;2.20;;
55170;SDS011;41060;47.510;8.680;2022-10-28T04:58:11;4.05;;;2.15;;
55170;SDS011;41060;47.510;8.680;2022-10-28T05:00:38;2.75;;;1.60;;
55170;SDS011;41060;47.510;8.680;2022-10-28T05:03:05;5.47;;;2.40;;
55170;SDS011;41060;47.510;8.680;2022-10-28T05:05:33;1.98;;;1.27;;
55170;SDS011;41060;47.510;8.680;2022-10-28T05:08:00;2.15;;;1.55;;
55170;SDS011;41060;47.510;8.680;2022-10-28T05:10:27;6.65;;;1.98;;
55170;SDS011;41060;47.510;8.680;2022-10-28T05:12:54;2.47;;;1.55;;
55170;SDS011;41060;47.510;8.680;2022-10-28T05:15:22;16.90;;;2.55;;
55170;SDS011;41060;47.510;8.680;2022-10-28T05:17:50;4.47;;;2.05;;
55170;SDS011;41060;47.510;8.680;2022-10-28T05:20:18;2.95;;;1.88;;
55170;SDS011;41060;47.510;8.680;2022-10-28T05:22:48;11.02;;;2.28;;
55170;SDS011;41060;47.510;8.680;2022-10-28T05:25:16;4.88;;;1.50;;
55170;SDS011;41060;47.510;8.680;2022-10-28T05:27:44;2.75;;;1.48;;
55170;SDS011;41060;47.510;8.680;2022-10-28T05:30:12;2.45;;;1.73;;
55170;SDS011;41060;47.510;8.680;2022-10-28T05:32:39;2.58;;;1.60;;
55170;SDS011;41060;47.510;8.680;2022-10-28T05:35:06;2.55;;;1.60;;
55170;SDS011;41060;47.510;8.680;2022-10-28T05:37:34;1.88;;;1.05;;
55170;SDS011;41060;47.510;8.680;2022-10-28T05:40:02;2.47;;;1.60;;
55170;SDS011;41060;47.510;8.680;2022-10-28T05:42:29;2.03;;;1.48;;
55170;SDS011;41060;47.510;8.680;2022-10-28T05:44:56;2.42;;;1.40;;
55170;SDS011;41060;47.510;8.680;2022-10-28T05:47:23;2.50;;;1.42;;
55170;SDS011;41060;47.510;8.680;2022-10-28T05:49:50;11.55;;;2.00;;
55170;SDS011;41060;47.510;8.680;2022-10-28T05:52:18;2.17;;;1.65;;
55170;SDS011;41060;47.510;8.680;2022-10-28T05:54:45;3.08;;;1.70;;
55170;SDS011;41060;47.510;8.680;2022-10-28T05:57:13;3.35;;;1.65;;
55170;SDS011;41060;47.510;8.680;2022-10-28T05:59:40;4.93;;;2.28;;
55170;SDS011;41060;47.510;8.680;2022-10-28T06:02:08;4.13;;;1.77;;
55170;SDS011;41060;47.510;8.680;2022-10-28T06:04:38;7.28;;;2.22;;
55170;SDS011;41060;47.510;8.680;2022-10-28T06:07:05;5.13;;;2.75;;
55170;SDS011;41060;47.510;8.680;2022-10-28T06:09:32;3.40;;;2.90;;
55170;SDS011;41060;47.510;8.680;2022-10-28T06:12:01;8.75;;;3.00;;
55170;SDS011;41060;47.510;8.680;2022-10-28T06:14:30;5.55;;;2.45;;
55170;SDS011;41060;47.510;8.680;2022-10-28T06:16:57;4.30;;;2.10;;
55170;SDS011;41060;47.510;8.680;2022-10-28T06:19:24;9.40;;;1.95;;
55170;SDS011;41060;47.510;8.680;2022-10-28T06:21:51;4.95;;;1.92;;
55170;SDS011;41060;47.510;8.680;2022-10-28T06:24:18;2.50;;;1.55;;
55170;SDS011;41060;47.510;8.680;2022-10-28T06:26:46;2.67;;;2.08;;
55170;SDS011;41060;47.510;8.680;2022-10-28T06:29:14;10.52;;;1.90;;
55170;SDS011;41060;47.510;8.680;2022-10-28T06:31:42;4.00;;;2.15;;
55170;SDS011;41060;47.510;8.680;2022-10-28T06:34:09;2.88;;;1.80;;
55170;SDS011;41060;47.510;8.680;2022-10-28T06:36:37;3.30;;;2.17;;
55170;SDS011;41060;47.510;8.680;2022-10-28T06:39:04;2.75;;;1.90;;
55170;SDS011;41060;47.510;8.680;2022-10-28T06:41:34;3.00;;;1.90;;
55170;SDS011;41060;47.510;8.680;2022-10-28T06:44:02;5.55;;;2.55;;
55170;SDS011;41060;47.510;8.680;2022-10-28T06:46:29;7.75;;;2.63;;
55170;SDS011;41060;47.510;8.680;2022-10-28T06:48:57;6.18;;;2.75;;
55170;SDS011;41060;47.510;8.680;2022-10-28T06:51:28;4.70;;;2.08;;
55170;SDS011;41060;47.510;8.680;2022-10-28T06:53:55;3.05;;;1.95;;
55170;SDS011;41060;47.510;8.680;2022-10-28T06:56:21;5.93;;;1.80;;
55170;SDS011;41060;47.510;8.680;2022-10-28T06:58:49;4.95;;;1.73;;
55170;SDS011;41060;47.510;8.680;2022-10-28T07:01:16;7.18;;;3.28;;
55170;SDS011;41060;47.510;8.680;2022-10-28T07:03:43;3.65;;;2.30;;
55170;SDS011;41060;47.510;8.680;2022-10-28T07:06:11;3.60;;;1.48;;
55170;SDS011;41060;47.510;8.680;2022-10-28T07:08:38;6.13;;;2.10;;
55170;SDS011;41060;47.510;8.680;2022-10-28T07:11:08;2.15;;;1.58;;
55170;SDS011;41060;47.510;8.680;2022-10-28T07:13:35;6.40;;;1.83;;
55170;SDS011;41060;47.510;8.680;2022-10-28T07:16:02;3.08;;;2.13;;
55170;SDS011;41060;47.510;8.680;2022-10-28T07:18:29;5.93;;;2.33;;
55170;SDS011;41060;47.510;8.680;2022-10-28T07:20:57;6.50;;;2.90;;
55170;SDS011;41060;47.510;8.680;2022-10-28T07:23:26;2.58;;;1.58;;
55170;SDS011;41060;47.510;8.680;2022-10-28T07:25:53;4.93;;;2.03;;
55170;SDS011;41060;47.510;8.680;2022-10-28T07:28:22;3.30;;;1.20;;
55170;SDS011;41060;47.510;8.680;2022-10-28T07:30:50;3.63;;;2.17;;
55170;SDS011;41060;47.510;8.680;2022-10-28T07:33:16;3.92;;;2.67;;
55170;SDS011;41060;47.510;8.680;2022-10-28T07:35:44;3.22;;;2.40;;
55170;SDS011;41060;47.510;8.680;2022-10-28T07:38:13;5.65;;;2.40;;
55170;SDS011;41060;47.510;8.680;2022-10-28T07:40:41;5.25;;;2.90;;
55170;SDS011;41060;47.510;8.680;2022-10-28T07:43:09;4.28;;;2.38;;
55170;SDS011;41060;47.510;8.680;2022-10-28T07:45:35;4.05;;;2.85;;
55170;SDS011;41060;47.510;8.680;2022-10-28T07:48:03;3.47;;;2.25;;
55170;SDS011;41060;47.510;8.680;2022-10-28T07:50:31;11.20;;;2.17;;
55170;SDS011;41060;47.510;8.680;2022-10-28T07:52:58;6.20;;;2.35;;
55170;SDS011;41060;47.510;8.680;2022-10-28T07:55:25;8.57;;;3.45;;
55170;SDS011;41060;47.510;8.680;2022-10-28T07:57:54;4.65;;;2.38;;
55170;SDS011;41060;47.510;8.680;2022-10-28T08:00:20;3.28;;;2.22;;
55170;SDS011;41060;47.510;8.680;2022-10-28T08:02:47;3.95;;;2.47;;
55170;SDS011;41060;47.510;8.680;2022-10-28T08:05:14;3.70;;;2.45;;
55170;SDS011;41060;47.510;8.680;2022-10-28T08:07:41;4.70;;;2.75;;
55170;SDS011;41060;47.510;8.680;2022-10-28T08:10:08;6.75;;;3.03;;
55170;SDS011;41060;47.510;8.680;2022-10-28T08:12:36;9.27;;;3.22;;
55170;SDS011;41060;47.510;8.680;2022-10-28T08:15:04;4.88;;;2.78;;
55170;SDS011;41060;47.510;8.680;2022-10-28T08:17:33;3.38;;;2.33;;
55170;SDS011;41060;47.510;8.680;2022-10-28T08:20:00;3.20;;;1.80;;
55170;SDS011;41060;47.510;8.680;2022-10-28T08:22:27;7.03;;;2.40;;
55170;SDS011;41060;47.510;8.680;2022-10-28T08:24:54;13.02;;;3.10;;
55170;SDS011;41060;47.510;8.680;2022-10-28T08:27:21;5.10;;;2.33;;
55170;SDS011;41060;47.510;8.680;2022-10-28T08:29:48;5.57;;;2.85;;
55170;SDS011;41060;47.510;8.680;2022-10-28T08:32:16;10.90;;;3.28;;
55170;SDS011;41060;47.510;8.680;2022-10-28T08:34:46;9.70;;;3.38;;
55170;SDS011;41060;47.510;8.680;2022-10-28T08:37:12;7.22;;;3.03;;
55170;SDS011;41060;47.510;8.680;2022-10-28T08:39:40;4.88;;;2.47;;
55170;SDS011;41060;47.510;8.680;2022-10-28T08:42:14;9.55;;;2.53;;
55170;SDS011;41060;47.510;8.680;2022-10-28T08:44:55;7.40;;;3.50;;
55170;SDS011;41060;47.510;8.680;2022-10-28T08:47:43;7.78;;;2.75;;
55170;SDS011;41060;47.510;8.680;2022-10-28T08:50:19;2.70;;;1.90;;
55170;SDS011;41060;47.510;8.680;2022-10-28T08:52:50;4.70;;;2.80;;
55170;SDS011;41060;47.510;8.680;2022-10-28T08:55:22;6.53;;;2.10;;
55170;SDS011;41060;47.510;8.680;2022-10-28T08:57:54;2.92;;;2.45;;
55170;SDS011;41060;47.510;8.680;2022-10-28T09:00:25;4.95;;;2.97;;
55170;SDS011;41060;47.510;8.680;2022-10-28T09:02:58;3.40;;;2.53;;
55170;SDS011;41060;47.510;8.680;2022-10-28T09:05:33;4.93;;;2.42;;
55170;SDS011;41060;47.510;8.680;2022-10-28T09:08:01;4.75;;;2.47;;
55170;SDS011;41060;47.510;8.680;2022-10-28T09:10:35;4.63;;;2.63;;
55170;SDS011;41060;47.510;8.680;2022-10-28T09:13:16;2.55;;;1.90;;
55170;SDS011;41060;47.510;8.680;2022-10-28T09:15:51;8.02;;;3.47;;
55170;SDS011;41060;47.510;8.680;2022-10-28T09:18:29;2.97;;;2.53;;
55170;SDS011;41060;47.510;8.680;2022-10-28T09:21:12;5.65;;;2.90;;
55170;SDS011;41060;47.510;8.680;2022-10-28T09:23:46;12.85;;;2.63;;
55170;SDS011;41060;47.510;8.680;2022-10-28T09:26:21;4.93;;;2.35;;
55170;SDS011;41060;47.510;8.680;2022-10-28T09:28:59;5.03;;;2.20;;
55170;SDS011;41060;47.510;8.680;2022-10-28T09:31:39;5.35;;;2.55;;
55170;SDS011;41060;47.510;8.680;2022-10-28T09:34:21;5.80;;;2.35;;
55170;SDS011;41060;47.510;8.680;2022-10-28T09:37:00;6.65;;;2.40;;
55170;SDS011;41060;47.510;8.680;2022-10-28T09:39:36;6.93;;;2.78;;
55170;SDS011;41060;47.510;8.680;2022-10-28T09:42:08;3.92;;;2.08;;
55170;SDS011;41060;47.510;8.680;2022-10-28T09:47:29;4.43;;;2.97;;
55170;SDS011;41060;47.510;8.680;2022-10-28T09:50:02;9.13;;;3.10;;
55170;SDS011;41060;47.510;8.680;2022-10-28T09:52:33;4.38;;;2.67;;
55170;SDS011;41060;47.510;8.680;2022-10-28T09:55:06;4.55;;;2.42;;
55170;SDS011;41060;47.510;8.680;2022-10-28T09:57:40;5.10;;;2.70;;
55170;SDS011;41060;47.510;8.680;2022-10-28T10:00:10;5.57;;;2.67;;
55170;SDS011;41060;47.510;8.680;2022-10-28T10:02:38;5.13;;;3.20;;
55170;SDS011;41060;47.510;8.680;2022-10-28T10:05:10;3.97;;;2.53;;
55170;SDS011;41060;47.510;8.680;2022-10-28T10:07:40;5.10;;;2.35;;
55170;SDS011;41060;47.510;8.680;2022-10-28T10:10:12;3.22;;;2.40;;
55170;SDS011;41060;47.510;8.680;2022-10-28T10:12:43;5.63;;;2.33;;
55170;SDS011;41060;47.510;8.680;2022-10-28T10:15:12;7.88;;;2.33;;
55170;SDS011;41060;47.510;8.680;2022-10-28T10:17:47;6.75;;;2.35;;
55170;SDS011;41060;47.510;8.680;2022-10-28T10:20:16;5.78;;;2.45;;
55170;SDS011;41060;47.510;8.680;2022-10-28T10:22:45;3.00;;;1.92;;
55170;SDS011;41060;47.510;8.680;2022-10-28T10:25:24;5.80;;;2.28;;
55170;SDS011;41060;47.510;8.680;2022-10-28T10:27:55;3.10;;;2.10;;
55170;SDS011;41060;47.510;8.680;2022-10-28T10:30:27;4.85;;;2.53;;
55170;SDS011;41060;47.510;8.680;2022-10-28T10:32:56;5.60;;;2.55;;
55170;SDS011;41060;47.510;8.680;2022-10-28T10:35:25;5.43;;;2.63;;
55170;SDS011;41060;47.510;8.680;2022-10-28T10:37:56;4.60;;;2.25;;
55170;SDS011;41060;47.510;8.680;2022-10-28T10:40:25;4.78;;;2.80;;
55170;SDS011;41060;47.510;8.680;2022-10-28T10:42:55;5.35;;;1.85;;
55170;SDS011;41060;47.510;8.680;2022-10-28T10:45:46;6.97;;;2.45;;
55170;SDS011;41060;47.510;8.680;2022-10-28T10:48:17;3.92;;;2.78;;
55170;SDS011;41060;47.510;8.680;2022-10-28T10:50:45;5.93;;;2.33;;
55170;SDS011;41060;47.510;8.680;2022-10-28T10:53:21;8.75;;;2.15;;
55170;SDS011;41060;47.510;8.680;2022-10-28T10:55:51;4.25;;;2.33;;
55170;SDS011;41060;47.510;8.680;2022-10-28T10:58:21;7.05;;;2.63;;
55170;SDS011;41060;47.510;8.680;2022-10-28T11:00:51;7.57;;;2.53;;
55170;SDS011;41060;47.510;8.680;2022-10-28T11:03:23;4.03;;;1.85;;
55170;SDS011;41060;47.510;8.680;2022-10-28T11:05:55;5.93;;;2.28;;
55170;SDS011;41060;47.510;8.680;2022-10-28T11:08:31;3.83;;;2.50;;
55170;SDS011;41060;47.510;8.680;2022-10-28T11:11:05;3.15;;;1.92;;
55170;SDS011;41060;47.510;8.680;2022-10-28T11:13:34;2.35;;;1.55;;
55170;SDS011;41060;47.510;8.680;2022-10-28T11:16:02;3.05;;;1.63;;
55170;SDS011;41060;47.510;8.680;2022-10-28T11:18:37;6.78;;;2.15;;
55170;SDS011;41060;47.510;8.680;2022-10-28T11:21:09;4.72;;;1.75;;
55170;SDS011;41060;47.510;8.680;2022-10-28T11:23:45;5.00;;;1.90;;
55170;SDS011;41060;47.510;8.680;2022-10-28T11:26:22;2.92;;;2.13;;
55170;SDS011;41060;47.510;8.680;2022-10-28T11:28:54;9.43;;;2.35;;
55170;SDS011;41060;47.510;8.680;2022-10-28T11:31:37;5.63;;;1.67;;
55170;SDS011;41060;47.510;8.680;2022-10-28T11:34:26;2.72;;;1.80;;
55170;SDS011;41060;47.510;8.680;2022-10-28T11:37:06;2.28;;;1.60;;
55170;SDS011;41060;47.510;8.680;2022-10-28T11:39:41;6.68;;;2.65;;
55170;SDS011;41060;47.510;8.680;2022-10-28T11:42:26;4.40;;;1.60;;
55170;SDS011;41060;47.510;8.680;2022-10-28T11:45:02;8.70;;;2.20;;
55170;SDS011;41060;47.510;8.680;2022-10-28T11:47:45;6.47;;;2.17;;
55170;SDS011;41060;47.510;8.680;2022-10-28T11:50:30;4.45;;;2.03;;
55170;SDS011;41060;47.510;8.680;2022-10-28T11:53:11;7.13;;;1.98;;
55170;SDS011;41060;47.510;8.680;2022-10-28T11:55:52;4.28;;;2.00;;
55170;SDS011;41060;47.510;8.680;2022-10-28T11:58:27;3.83;;;1.85;;
55170;SDS011;41060;47.510;8.680;2022-10-28T12:01:08;3.55;;;1.70;;
55170;SDS011;41060;47.510;8.680;2022-10-28T12:03:52;3.28;;;2.08;;
55170;SDS011;41060;47.510;8.680;2022-10-28T12:06:56;2.72;;;1.92;;
55170;SDS011;41060;47.510;8.680;2022-10-28T12:09:40;5.45;;;1.92;;
55170;SDS011;41060;47.510;8.680;2022-10-28T12:12:18;3.15;;;1.30;;
55170;SDS011;41060;47.510;8.680;2022-10-28T12:14:56;5.90;;;1.63;;
55170;SDS011;41060;47.510;8.680;2022-10-28T12:17:30;2.78;;;1.67;;
55170;SDS011;41060;47.510;8.680;2022-10-28T12:20:06;3.75;;;1.73;;
55170;SDS011;41060;47.510;8.680;2022-10-28T12:22:39;3.97;;;1.60;;
55170;SDS011;41060;47.510;8.680;2022-10-28T12:25:16;2.90;;;1.65;;
55170;SDS011;41060;47.510;8.680;2022-10-28T12:27:47;8.20;;;1.50;;
55170;SDS011;41060;47.510;8.680;2022-10-28T12:30:18;2.72;;;1.55;;
55170;SDS011;41060;47.510;8.680;2022-10-28T12:32:48;6.03;;;1.45;;
55170;SDS011;41060;47.510;8.680;2022-10-28T12:35:20;2.58;;;1.38;;
55170;SDS011;41060;47.510;8.680;2022-10-28T12:37:51;3.60;;;1.35;;
55170;SDS011;41060;47.510;8.680;2022-10-28T12:40:25;3.83;;;1.87;;
55170;SDS011;41060;47.510;8.680;2022-10-28T12:45:26;6.68;;;1.70;;
55170;SDS011;41060;47.510;8.680;2022-10-28T12:47:57;4.35;;;1.55;;
55170;SDS011;41060;47.510;8.680;2022-10-28T12:50:29;5.10;;;1.42;;
55170;SDS011;41060;47.510;8.680;2022-10-28T12:53:01;3.17;;;1.55;;
55170;SDS011;41060;47.510;8.680;2022-10-28T12:55:47;3.33;;;1.95;;
55170;SDS011;41060;47.510;8.680;2022-10-28T12:58:18;8.48;;;2.75;;
55170;SDS011;41060;47.510;8.680;2022-10-28T13:00:51;12.88;;;4.78;;
55170;SDS011;41060;47.510;8.680;2022-10-28T13:03:20;9.10;;;4.10;;
55170;SDS011;41060;47.510;8.680;2022-10-28T13:05:49;8.63;;;3.47;;
55170;SDS011;41060;47.510;8.680;2022-10-28T13:08:31;5.68;;;2.80;;
55170;SDS011;41060;47.510;8.680;2022-10-28T13:11:37;7.13;;;2.33;;
55170;SDS011;41060;47.510;8.680;2022-10-28T13:17:22;3.38;;;1.92;;
55170;SDS011;41060;47.510;8.680;2022-10-28T13:20:13;4.65;;;1.85;;
55170;SDS011;41060;47.510;8.680;2022-10-28T13:22:50;3.58;;;1.90;;
55170;SDS011;41060;47.510;8.680;2022-10-28T13:25:36;2.63;;;1.35;;
55170;SDS011;41060;47.510;8.680;2022-10-28T13:28:14;5.15;;;1.48;;
55170;SDS011;41060;47.510;8.680;2022-10-28T13:30:54;4.95;;;1.60;;
55170;SDS011;41060;47.510;8.680;2022-10-28T13:33:23;5.82;;;1.60;;
55170;SDS011;41060;47.510;8.680;2022-10-28T13:35:51;4.63;;;1.73;;
55170;SDS011;41060;47.510;8.680;2022-10-28T13:38:20;3.08;;;1.33;;
55170;SDS011;41060;47.510;8.680;2022-10-28T13:41:09;5.53;;;1.35;;
55170;SDS011;41060;47.510;8.680;2022-10-28T13:44:22;4.40;;;1.40;;
55170;SDS011;41060;47.510;8.680;2022-10-28T13:47:00;4.38;;;1.88;;
55170;SDS011;41060;47.510;8.680;2022-10-28T13:56:13;9.05;;;2.03;;
55170;SDS011;41060;47.510;8.680;2022-10-28T13:58:48;8.23;;;1.67;;
55170;SDS011;41060;47.510;8.680;2022-10-28T14:01:35;9.95;;;1.60;;
55170;SDS011;41060;47.510;8.680;2022-10-28T14:04:04;1.60;;;0.90;;
55170;SDS011;41060;47.510;8.680;2022-10-28T14:06:45;4.13;;;1.38;;
55170;SDS011;41060;47.510;8.680;2022-10-28T14:09:18;4.97;;;1.13;;
55170;SDS011;41060;47.510;8.680;2022-10-28T14:12:01;1.58;;;1.02;;
55170;SDS011;41060;47.510;8.680;2022-10-28T14:14:30;9.70;;;1.38;;
55170;SDS011;41060;47.510;8.680;2022-10-28T14:17:02;3.30;;;1.15;;
55170;SDS011;41060;47.510;8.680;2022-10-28T14:19:29;3.80;;;1.30;;
55170;SDS011;41060;47.510;8.680;2022-10-28T14:21:57;3.63;;;1.25;;
55170;SDS011;41060;47.510;8.680;2022-10-28T14:24:29;1.52;;;0.88;;
55170;SDS011;41060;47.510;8.680;2022-10-28T14:30:20;4.47;;;1.30;;
55170;SDS011;41060;47.510;8.680;2022-10-28T14:36:06;4.80;;;1.15;;
55170;SDS011;41060;47.510;8.680;2022-10-28T14:38:55;4.93;;;0.90;;
55170;SDS011;41060;47.510;8.680;2022-10-28T14:41:44;1.90;;;0.95;;
55170;SDS011;41060;47.510;8.680;2022-10-28T14:44:33;4.53;;;1.10;;
55170;SDS011;41060;47.510;8.680;2022-10-28T14:47:25;4.53;;;1.17;;
55170;SDS011;41060;47.510;8.680;2022-10-28T14:50:14;5.32;;;0.90;;
55170;SDS011;41060;47.510;8.680;2022-10-28T14:52:48;2.00;;;1.10;;
55170;SDS011;41060;47.510;8.680;2022-10-28T14:55:19;1.58;;;0.85;;
55170;SDS011;41060;47.510;8.680;2022-10-28T14:57:48;3.88;;;0.95;;
55170;SDS011;41060;47.510;8.680;2022-10-28T15:00:18;1.98;;;1.08;;
55170;SDS011;41060;47.510;8.680;2022-10-28T15:02:45;8.00;;;1.35;;
55170;SDS011;41060;47.510;8.680;2022-10-28T15:05:15;2.63;;;0.88;;
55170;SDS011;41060;47.510;8.680;2022-10-28T15:07:44;2.85;;;0.77;;
55170;SDS011;41060;47.510;8.680;2022-10-28T15:10:16;2.58;;;1.25;;
55170;SDS011;41060;47.510;8.680;2022-10-28T15:12:45;2.53;;;1.00;;
55170;SDS011;41060;47.510;8.680;2022-10-28T15:15:15;3.38;;;1.20;;
55170;SDS011;41060;47.510;8.680;2022-10-28T15:17:43;2.97;;;1.00;;
55170;SDS011;41060;47.510;8.680;2022-10-28T15:20:17;9.73;;;1.50;;
55170;SDS011;41060;47.510;8.680;2022-10-28T15:22:46;3.47;;;1.15;;
55170;SDS011;41060;47.510;8.680;2022-10-28T15:25:15;1.63;;;0.90;;
55170;SDS011;41060;47.510;8.680;2022-10-28T15:27:43;4.70;;;2.05;;
55170;SDS011;41060;47.510;8.680;2022-10-28T15:30:12;4.32;;;1.23;;
55170;SDS011;41060;47.510;8.680;2022-10-28T15:32:43;3.13;;;1.15;;
55170;SDS011;41060;47.510;8.680;2022-10-28T15:40:59;5.95;;;1.15;;
55170;SDS011;41060;47.510;8.680;2022-10-28T15:43:27;5.90;;;1.00;;
55170;SDS011;41060;47.510;8.680;2022-10-28T15:46:06;1.63;;;1.10;;
55170;SDS011;41060;47.510;8.680;2022-10-28T15:48:35;5.10;;;1.20;;
55170;SDS011;41060;47.510;8.680;2022-10-28T15:51:12;2.03;;;1.13;;